createdAt,value
2019-03-30T00:00:34.464Z,16.43
2019-03-30T00:03:06.294Z,16.63
2019-03-30T00:05:38.073Z,16.83
2019-03-30T00:08:09.953Z,16.00
2019-03-30T00:10:41.723Z,16.00
2019-03-30T00:13:13.584Z,16.83
2019-03-30T00:15:49.034Z,16.73
2019-03-30T00:18:21.444Z,16.23
2019-03-30T00:20:53.282Z,17.17
2019-03-30T00:23:25.166Z,16.73
2019-03-30T00:25:56.941Z,16.77
2019-03-30T00:28:28.816Z,17.17
2019-03-30T00:31:07.067Z,16.70
2019-03-30T00:33:38.954Z,17.13
2019-03-30T00:36:10.753Z,17.33
2019-03-30T00:38:42.585Z,17.20
2019-03-30T00:41:14.423Z,17.63
2019-03-30T00:43:46.322Z,18.40
2019-03-30T00:46:18.107Z,18.40
2019-03-30T00:48:50.476Z,18.30
2019-03-30T00:51:22.233Z,17.93
2019-03-30T00:53:54.194Z,19.23
2019-03-30T00:56:26.002Z,17.63
2019-03-30T00:58:58.038Z,17.83
2019-03-30T01:01:29.793Z,17.77
2019-03-30T01:04:02.742Z,18.10
2019-03-30T01:06:39.082Z,17.83
2019-03-30T01:09:11.307Z,18.63
2019-03-30T01:11:43.116Z,17.97
2019-03-30T01:14:14.962Z,17.93
2019-03-30T01:16:47.287Z,19.13
2019-03-30T01:19:19.712Z,18.70
2019-03-30T01:21:51.631Z,18.27
2019-03-30T01:24:23.549Z,16.67
2019-03-30T01:26:55.412Z,18.03
2019-03-30T01:29:27.308Z,17.03
2019-03-30T01:32:02.883Z,16.50
2019-03-30T01:34:34.712Z,16.40
2019-03-30T01:37:06.502Z,17.80
2019-03-30T01:39:38.351Z,15.93
2019-03-30T01:42:10.102Z,16.87
2019-03-30T01:44:41.945Z,17.13
2019-03-30T01:47:13.734Z,16.73
2019-03-30T01:49:46.127Z,16.13
2019-03-30T01:52:17.862Z,17.63
2019-03-30T01:54:49.776Z,16.40
2019-03-30T01:57:21.602Z,15.73
2019-03-30T01:59:53.513Z,17.57
2019-03-30T02:02:25.291Z,17.53
2019-03-30T02:04:57.415Z,17.13
2019-03-30T02:07:29.192Z,17.27
2019-03-30T02:10:01.149Z,17.67
2019-03-30T02:12:32.957Z,16.70
2019-03-30T02:15:05.478Z,16.93
2019-03-30T02:17:37.341Z,16.77
2019-03-30T02:20:12.883Z,17.40
2019-03-30T02:22:48.423Z,17.10
2019-03-30T02:25:20.562Z,16.80
2019-03-30T02:27:52.352Z,17.33
2019-03-30T02:30:24.193Z,15.97
2019-03-30T02:32:56.027Z,17.10
2019-03-30T02:35:28.314Z,16.60
2019-03-30T02:38:00.303Z,16.97
2019-03-30T02:40:32.174Z,16.13
2019-03-30T02:43:03.989Z,15.83
2019-03-30T02:45:35.918Z,16.33
2019-03-30T02:48:07.684Z,16.83
2019-03-30T02:50:49.471Z,16.57
2019-03-30T02:53:13.792Z,16.73
2019-03-30T02:55:45.782Z,17.20
2019-03-30T02:58:17.588Z,17.03
2019-03-30T03:00:55.404Z,17.73
2019-03-30T03:03:27.263Z,16.97
2019-03-30T03:05:59.433Z,17.23
2019-03-30T03:08:31.326Z,17.07
2019-03-30T03:11:03.514Z,16.27
2019-03-30T03:13:35.293Z,16.30
2019-03-30T03:16:07.185Z,17.17
2019-03-30T03:18:38.963Z,16.33
2019-03-30T03:21:11.230Z,15.80
2019-03-30T03:23:43.673Z,16.67
2019-03-30T03:26:15.527Z,16.47
2019-03-30T03:28:47.443Z,15.77
2019-03-30T03:31:19.299Z,17.57
2019-03-30T03:33:51.143Z,17.77
2019-03-30T03:36:23.050Z,16.60
2019-03-30T03:38:54.905Z,17.40
2019-03-30T03:41:26.761Z,17.17
2019-03-30T03:43:58.643Z,16.87
2019-03-30T03:46:30.524Z,17.03
2019-03-30T03:49:02.296Z,16.70
2019-03-30T03:51:35.773Z,16.50
2019-03-30T03:54:07.651Z,16.03
2019-03-30T03:56:39.484Z,16.27
2019-03-30T03:59:15.144Z,16.43
2019-03-30T04:01:47.090Z,16.67
2019-03-30T04:04:20.992Z,16.93
2019-03-30T04:06:52.975Z,17.20
2019-03-30T04:09:24.795Z,16.37
2019-03-30T04:11:57.363Z,16.47
2019-03-30T04:14:29.143Z,16.60
2019-03-30T04:17:01.156Z,15.97
2019-03-30T04:19:33.131Z,16.40
2019-03-30T04:22:05.802Z,15.43
2019-03-30T04:24:41.544Z,16.40
2019-03-30T04:27:13.411Z,16.27
2019-03-30T04:29:45.182Z,16.77
2019-03-30T04:32:17.045Z,15.80
2019-03-30T04:34:48.840Z,16.60
2019-03-30T04:37:20.849Z,15.43
2019-03-30T04:39:52.773Z,16.40
2019-03-30T04:42:24.620Z,15.77
2019-03-30T04:44:56.432Z,15.90
2019-03-30T04:47:28.317Z,15.80
2019-03-30T04:50:00.441Z,15.47
2019-03-30T04:52:33.462Z,16.63
2019-03-30T04:55:05.672Z,14.50
2019-03-30T04:57:37.520Z,16.20
2019-03-30T05:00:09.272Z,16.20
2019-03-30T05:02:41.122Z,16.20
2019-03-30T05:05:12.898Z,16.63
2019-03-30T05:07:44.756Z,16.70
2019-03-30T05:10:16.642Z,16.20
2019-03-30T05:12:48.473Z,15.80
2019-03-30T05:15:20.240Z,16.33
2019-03-30T05:17:52.156Z,16.60
2019-03-30T05:20:24.219Z,16.53
2019-03-30T05:22:56.492Z,16.10
2019-03-30T05:25:29.602Z,16.20
2019-03-30T05:28:01.462Z,15.77
2019-03-30T05:30:33.326Z,15.87
2019-03-30T05:33:06.414Z,15.60
2019-03-30T05:35:38.482Z,15.23
2019-03-30T05:38:10.341Z,14.57
2019-03-30T05:40:42.110Z,14.50
2019-03-30T05:43:13.940Z,14.80
2019-03-30T05:45:45.723Z,14.73
2019-03-30T05:48:17.585Z,14.40
2019-03-30T05:50:49.455Z,14.50
2019-03-30T05:53:21.877Z,14.13
2019-03-30T05:55:53.660Z,14.53
2019-03-30T05:58:25.542Z,13.07
2019-03-30T06:00:58.492Z,13.70
2019-03-30T06:03:30.463Z,13.00
2019-03-30T06:06:02.321Z,13.00
2019-03-30T06:08:34.284Z,13.63
2019-03-30T06:11:06.150Z,13.50
2019-03-30T06:13:38.156Z,13.43
2019-03-30T06:16:09.942Z,12.57
2019-03-30T06:18:41.818Z,12.77
2019-03-30T06:21:13.662Z,12.50
2019-03-30T06:23:48.466Z,12.80
2019-03-30T06:26:20.020Z,12.13
2019-03-30T06:28:51.962Z,12.80
2019-03-30T06:31:23.813Z,12.07
2019-03-30T06:33:55.702Z,12.93
2019-03-30T06:36:27.772Z,12.00
2019-03-30T06:38:59.590Z,12.67
2019-03-30T06:41:31.432Z,12.00
2019-03-30T06:44:04.432Z,12.27
2019-03-30T06:46:39.382Z,11.57
2019-03-30T06:49:09.977Z,12.03
2019-03-30T06:51:41.852Z,15.03
2019-03-30T06:54:14.906Z,12.03
2019-03-30T06:56:47.002Z,14.23
2019-03-30T06:59:18.922Z,11.83
2019-03-30T07:01:50.753Z,12.20
2019-03-30T07:04:22.729Z,12.00
2019-03-30T07:06:54.622Z,15.50
2019-03-30T07:09:26.680Z,13.83
2019-03-30T07:11:58.632Z,13.53
2019-03-30T07:14:31.671Z,12.67
2019-03-30T07:17:03.465Z,11.17
2019-03-30T07:19:36.657Z,11.37
2019-03-30T07:22:08.472Z,12.07
2019-03-30T07:24:41.242Z,12.57
2019-03-30T07:27:13.682Z,11.43
2019-03-30T07:29:45.533Z,11.83
2019-03-30T07:32:17.325Z,11.43
2019-03-30T07:34:49.233Z,11.23
2019-03-30T07:37:20.992Z,13.90
2019-03-30T07:39:52.853Z,11.63
2019-03-30T07:42:24.642Z,11.87
2019-03-30T07:44:56.512Z,11.17
2019-03-30T07:47:28.433Z,11.77
2019-03-30T07:50:00.394Z,11.67
2019-03-30T07:52:32.152Z,11.67
2019-03-30T07:55:05.354Z,12.70
2019-03-30T07:57:37.122Z,12.27
2019-03-30T08:00:09.003Z,11.67
2019-03-30T08:02:40.782Z,12.23
2019-03-30T08:05:12.650Z,12.57
2019-03-30T08:07:44.654Z,12.50
2019-03-30T08:10:16.584Z,12.83
2019-03-30T08:12:49.493Z,12.93
2019-03-30T08:15:21.925Z,11.63
2019-03-30T08:17:55.701Z,12.27
2019-03-30T08:20:27.904Z,12.40
2019-03-30T08:23:00.144Z,12.70
2019-03-30T08:25:33.738Z,12.90
2019-03-30T08:28:12.185Z,12.93
2019-03-30T08:30:44.054Z,12.60
2019-03-30T08:33:15.811Z,13.23
2019-03-30T08:35:47.644Z,17.63
2019-03-30T08:38:19.634Z,22.23
2019-03-30T08:40:51.542Z,28.03
2019-03-30T08:43:23.290Z,24.13
2019-03-30T08:45:55.203Z,28.30
2019-03-30T08:48:27.065Z,29.13
2019-03-30T08:50:58.999Z,18.40
2019-03-30T08:53:30.756Z,23.40
2019-03-30T08:56:03.214Z,18.97
2019-03-30T08:58:35.017Z,16.27
2019-03-30T09:01:07.043Z,14.63
2019-03-30T09:03:38.820Z,20.83
2019-03-30T09:06:10.749Z,26.60
2019-03-30T09:08:42.588Z,21.50
2019-03-30T09:11:14.531Z,21.47
2019-03-30T09:13:46.343Z,15.20
2019-03-30T09:16:18.273Z,16.23
2019-03-30T09:18:50.166Z,14.27
2019-03-30T09:21:22.062Z,26.07
2019-03-30T09:24:08.433Z,21.77
2019-03-30T09:32:53.897Z,26.82
2019-03-30T09:35:25.846Z,23.20
2019-03-30T09:37:57.751Z,22.27
2019-03-30T09:40:29.644Z,24.37
2019-03-30T09:43:01.598Z,22.00
2019-03-30T09:45:33.397Z,23.47
2019-03-30T09:48:05.605Z,26.53
2019-03-30T09:50:38.552Z,27.23
2019-03-30T09:53:10.841Z,20.53
2019-03-30T09:55:42.679Z,20.30
2019-03-30T09:58:15.343Z,20.20
2019-03-30T10:00:47.303Z,23.30
2019-03-30T10:03:19.162Z,23.10
2019-03-30T10:05:51.074Z,25.00
2019-03-30T10:08:24.280Z,22.83
2019-03-30T10:10:56.083Z,22.70
2019-03-30T10:13:28.097Z,20.17
2019-03-30T10:15:59.947Z,21.90
2019-03-30T10:18:31.912Z,19.60
2019-03-30T10:21:03.784Z,19.70
2019-03-30T10:23:35.763Z,21.13
2019-03-30T10:26:07.558Z,22.83
2019-03-30T10:28:39.809Z,19.83
2019-03-30T10:31:11.662Z,17.90
2019-03-30T10:33:43.862Z,19.43
2019-03-30T10:36:15.660Z,18.37
2019-03-30T10:38:47.522Z,18.53
2019-03-30T10:41:19.382Z,16.40
2019-03-30T10:43:51.204Z,17.03
2019-03-30T10:46:23.018Z,15.73
2019-03-30T10:48:55.112Z,14.73
2019-03-30T10:51:27.002Z,15.13
2019-03-30T10:53:58.921Z,16.30
2019-03-30T10:56:30.732Z,16.20
2019-03-30T10:59:02.902Z,14.00
2019-03-30T11:01:34.794Z,15.20
2019-03-30T11:04:06.884Z,15.80
2019-03-30T11:06:38.754Z,13.97
2019-03-30T11:09:10.672Z,13.60
2019-03-30T11:11:42.543Z,14.33
2019-03-30T11:14:14.522Z,13.63
2019-03-30T11:16:46.352Z,14.40
2019-03-30T11:19:18.362Z,13.40
2019-03-30T11:21:50.251Z,13.67
2019-03-30T11:24:22.226Z,13.83
2019-03-30T11:26:54.023Z,14.30
2019-03-30T11:29:27.561Z,15.43
2019-03-30T11:31:59.477Z,14.77
2019-03-30T11:34:38.441Z,14.57
2019-03-30T11:37:10.301Z,13.60
2019-03-30T11:39:42.282Z,14.20
2019-03-30T11:42:14.063Z,13.63
2019-03-30T11:44:46.042Z,12.70
2019-03-30T11:47:17.972Z,14.40
2019-03-30T11:49:49.953Z,15.07
2019-03-30T11:52:21.791Z,16.23
2019-03-30T11:54:53.803Z,13.93
2019-03-30T11:57:25.643Z,14.77
2019-03-30T11:59:58.005Z,14.60
2019-03-30T12:02:30.406Z,14.90
2019-03-30T12:05:03.281Z,14.90
2019-03-30T12:07:35.151Z,14.17
2019-03-30T12:10:07.614Z,15.87
2019-03-30T12:12:39.580Z,15.70
2019-03-30T12:15:11.938Z,14.60
2019-03-30T12:17:49.644Z,14.63
2019-03-30T12:20:26.014Z,14.57
2019-03-30T12:22:57.883Z,19.73
2019-03-30T12:25:35.701Z,18.23
2019-03-30T12:28:06.712Z,15.30
2019-03-30T12:30:39.192Z,13.73
2019-03-30T12:33:11.211Z,14.13
2019-03-30T12:35:47.092Z,14.33
2019-03-30T12:38:18.912Z,13.73
2019-03-30T12:40:51.192Z,13.83
2019-03-30T12:43:22.943Z,13.07
2019-03-30T12:45:54.792Z,12.93
2019-03-30T12:48:26.615Z,16.07
2019-03-30T12:50:58.842Z,14.70
2019-03-30T12:53:31.004Z,15.30
2019-03-30T12:56:03.074Z,14.63
2019-03-30T12:58:34.993Z,14.97
2019-03-30T13:01:07.212Z,15.07
2019-03-30T13:03:38.952Z,14.63
2019-03-30T13:06:10.813Z,15.63
2019-03-30T13:08:42.572Z,13.90
2019-03-30T13:11:14.562Z,14.00
2019-03-30T13:13:46.433Z,14.00
2019-03-30T13:16:18.322Z,28.97
2019-03-30T13:18:50.122Z,20.10
2019-03-30T13:21:21.966Z,14.40
2019-03-30T13:23:53.798Z,16.60
2019-03-30T13:26:25.714Z,15.53
2019-03-30T13:28:58.562Z,15.33
2019-03-30T13:31:30.703Z,14.37
2019-03-30T13:34:02.452Z,15.90
2019-03-30T13:36:42.506Z,16.53
2019-03-30T13:39:14.303Z,13.98
2019-03-30T13:41:46.463Z,16.37
2019-03-30T13:44:18.303Z,15.03
2019-03-30T13:46:50.315Z,14.70
2019-03-30T13:49:22.242Z,14.80
2019-03-30T13:51:54.082Z,15.27
2019-03-30T13:54:25.873Z,15.30
2019-03-30T13:56:57.742Z,16.13
2019-03-30T13:59:29.542Z,19.50
2019-03-30T14:02:01.792Z,17.07
2019-03-30T14:04:33.523Z,17.13
2019-03-30T14:07:05.788Z,18.63
2019-03-30T14:09:37.828Z,18.87
2019-03-30T14:12:10.802Z,16.83
2019-03-30T14:14:42.550Z,16.00
2019-03-30T14:17:14.692Z,18.10
2019-03-30T14:19:46.485Z,16.30
2019-03-30T14:22:18.372Z,16.63
2019-03-30T14:24:50.276Z,17.40
2019-03-30T14:27:22.342Z,17.87
2019-03-30T14:29:54.515Z,17.03
2019-03-30T14:32:26.613Z,18.30
2019-03-30T14:34:58.366Z,19.10
2019-03-30T14:37:30.223Z,19.00
2019-03-30T14:40:02.333Z,28.20
2019-03-30T14:42:34.544Z,20.73
2019-03-30T14:45:06.733Z,20.73
2019-03-30T14:47:39.110Z,21.97
2019-03-30T14:50:10.964Z,19.83
2019-03-30T14:52:42.863Z,20.70
2019-03-30T14:55:14.685Z,22.90
2019-03-30T14:57:47.121Z,23.33
2019-03-30T15:00:18.897Z,22.43
2019-03-30T15:02:50.863Z,21.60
2019-03-30T15:05:22.632Z,22.70
2019-03-30T15:07:58.514Z,22.70
2019-03-30T15:10:30.333Z,23.77
2019-03-30T15:13:02.294Z,23.30
2019-03-30T15:15:34.112Z,22.90
2019-03-30T15:18:06.072Z,26.20
2019-03-30T15:20:38.952Z,23.43
2019-03-30T15:23:10.822Z,19.47
2019-03-30T15:25:42.682Z,20.40
2019-03-30T15:28:16.124Z,20.00
2019-03-30T15:30:47.945Z,33.00
2019-03-30T15:33:19.967Z,30.27
2019-03-30T15:35:51.764Z,27.87
2019-03-30T15:38:23.767Z,24.00
2019-03-30T15:40:55.909Z,25.40
2019-03-30T15:43:38.132Z,32.53
2019-03-30T15:46:01.688Z,24.53
2019-03-30T15:48:33.723Z,23.87
2019-03-30T15:51:05.541Z,27.07
2019-03-30T15:53:37.575Z,23.90
2019-03-30T15:56:15.492Z,23.40
2019-03-30T15:58:48.194Z,22.57
2019-03-30T16:01:20.353Z,31.27
2019-03-30T16:03:52.713Z,31.63
2019-03-30T16:06:24.480Z,27.27
2019-03-30T16:08:58.695Z,27.37
2019-03-30T16:11:32.634Z,27.87
2019-03-30T16:14:04.584Z,28.70
2019-03-30T16:16:36.528Z,31.73
2019-03-30T16:19:08.524Z,32.03
2019-03-30T16:21:40.443Z,39.03
2019-03-30T16:24:12.505Z,36.10
2019-03-30T16:26:44.285Z,37.00
2019-03-30T16:29:17.243Z,40.63
2019-03-30T16:31:49.087Z,36.87
2019-03-30T16:34:21.223Z,40.23
2019-03-30T16:36:53.434Z,39.80
2019-03-30T16:39:25.812Z,44.97
2019-03-30T16:42:00.532Z,43.20
2019-03-30T16:44:32.812Z,44.07
2019-03-30T16:47:04.683Z,43.50
2019-03-30T16:49:36.852Z,42.20
2019-03-30T16:52:08.702Z,43.47
2019-03-30T16:54:40.774Z,40.17
2019-03-30T16:57:12.682Z,38.50
2019-03-30T16:59:45.094Z,40.10
2019-03-30T17:02:16.893Z,40.40
2019-03-30T17:04:49.023Z,37.93
2019-03-30T17:07:20.996Z,39.93
2019-03-30T17:09:56.532Z,39.07
2019-03-30T17:12:28.492Z,40.63
2019-03-30T17:15:00.986Z,38.73
2019-03-30T17:17:32.941Z,41.47
2019-03-30T17:20:07.766Z,57.50
2019-03-30T17:22:39.542Z,56.13
2019-03-30T17:25:11.623Z,117.17
2019-03-30T17:27:57.092Z,114.60
2019-03-30T17:30:17.881Z,58.30
2019-03-30T17:32:49.754Z,58.73
2019-03-30T17:35:22.202Z,61.10
2019-03-30T17:37:54.382Z,78.73
2019-03-30T17:40:26.346Z,84.43
2019-03-30T17:42:58.192Z,92.70
2019-03-30T17:45:30.942Z,81.60
2019-03-30T17:48:02.945Z,76.47
2019-03-30T17:50:38.643Z,81.43
2019-03-30T17:53:10.523Z,70.10
2019-03-30T17:55:42.615Z,74.33
2019-03-30T17:58:14.423Z,77.20
2019-03-30T18:00:47.544Z,70.37
2019-03-30T18:03:19.306Z,70.77
2019-03-30T18:05:51.223Z,80.83
2019-03-30T18:08:22.992Z,81.10
2019-03-30T18:10:55.200Z,88.23
2019-03-30T18:13:27.023Z,88.90
2019-03-30T18:15:59.113Z,92.73
2019-03-30T18:18:30.992Z,90.60
2019-03-30T18:21:03.105Z,90.17
2019-03-30T18:23:35.225Z,90.73
2019-03-30T18:26:07.117Z,114.37
2019-03-30T18:28:39.167Z,98.27
2019-03-30T18:31:11.452Z,103.87
2019-03-30T18:33:43.303Z,104.10
2019-03-30T18:36:15.445Z,110.50
2019-03-30T18:38:50.584Z,104.33
2019-03-30T18:41:22.643Z,108.97
2019-03-30T18:43:54.382Z,108.83
2019-03-30T18:46:26.582Z,96.73
2019-03-30T18:48:58.831Z,101.83
2019-03-30T18:51:30.905Z,105.63
2019-03-30T18:54:03.172Z,111.17
2019-03-30T18:56:35.468Z,121.07
2019-03-30T18:59:07.502Z,120.40
2019-03-30T19:01:40.193Z,121.47
2019-03-30T19:04:12.154Z,120.93
2019-03-30T19:06:47.706Z,122.50
2019-03-30T19:09:19.766Z,120.17
2019-03-30T19:11:53.912Z,123.40
2019-03-30T19:14:25.786Z,123.60
2019-03-30T19:16:57.933Z,128.83
2019-03-30T19:19:29.788Z,130.27
2019-03-30T19:22:02.366Z,132.57
2019-03-30T19:24:34.413Z,131.53
2019-03-30T19:27:06.364Z,131.90
2019-03-30T19:29:38.135Z,128.27
2019-03-30T19:32:10.314Z,131.73
2019-03-30T19:34:42.133Z,128.20
2019-03-30T19:37:14.103Z,136.70
2019-03-30T19:39:45.863Z,131.67
2019-03-30T19:42:17.744Z,135.20
2019-03-30T19:44:49.543Z,129.53
2019-03-30T19:47:21.436Z,127.47
2019-03-30T19:49:53.230Z,127.73
2019-03-30T19:52:38.985Z,125.17
2019-03-30T19:54:59.022Z,123.10
2019-03-30T19:57:31.002Z,122.73
2019-03-30T20:00:04.315Z,124.63
2019-03-30T20:02:37.233Z,130.80
2019-03-30T20:05:10.942Z,130.13
2019-03-30T20:07:43.152Z,126.60
2019-03-30T20:10:15.053Z,127.20
2019-03-30T20:12:53.882Z,121.07
2019-03-30T20:15:25.842Z,119.87
2019-03-30T20:17:57.957Z,129.03
2019-03-30T20:20:29.863Z,121.97
2019-03-30T20:23:02.244Z,116.07
2019-03-30T20:25:35.133Z,117.73
2019-03-30T20:28:07.300Z,118.73
2019-03-30T20:30:39.255Z,113.47
2019-03-30T20:33:11.637Z,117.97
2019-03-30T20:35:49.642Z,117.87
2019-03-30T20:38:21.813Z,120.90
2019-03-30T20:40:53.762Z,120.03
2019-03-30T20:43:29.359Z,130.87
2019-03-30T20:46:07.112Z,119.43
2019-03-30T20:48:42.752Z,123.43
2019-03-30T20:51:14.932Z,128.60
2019-03-30T20:53:47.612Z,137.40
2019-03-30T20:56:19.662Z,136.33
2019-03-30T20:58:51.742Z,144.00
2019-03-30T21:01:29.832Z,141.40
2019-03-30T21:04:02.220Z,140.53
2019-03-30T21:06:34.314Z,143.90
2019-03-30T21:09:06.792Z,142.07
2019-03-30T21:11:47.922Z,140.23
2019-03-30T21:14:23.063Z,137.63
2019-03-30T21:16:57.893Z,136.47
2019-03-30T21:19:29.963Z,134.53
2019-03-30T21:22:02.355Z,135.50
2019-03-30T21:24:34.814Z,132.50
2019-03-30T21:27:07.091Z,130.33
2019-03-30T21:29:53.966Z,131.23
2019-03-30T21:32:15.095Z,130.73
2019-03-30T21:34:47.682Z,130.67
2019-03-30T21:37:19.735Z,127.47
2019-03-30T21:39:51.712Z,131.60
2019-03-30T21:42:23.662Z,125.03
2019-03-30T21:44:55.722Z,128.03
2019-03-30T21:47:36.702Z,127.63
2019-03-30T21:52:40.622Z,117.77
2019-03-30T21:55:12.692Z,121.77
2019-03-30T21:57:44.570Z,125.27
2019-03-30T22:00:36.582Z,117.80
2019-03-30T22:03:08.362Z,121.47
2019-03-30T22:05:41.022Z,112.20
2019-03-30T22:08:12.883Z,118.60
2019-03-30T22:10:44.960Z,116.63
2019-03-30T22:13:16.913Z,114.30
2019-03-30T22:15:52.972Z,109.50
2019-03-30T22:18:24.939Z,112.07
2019-03-30T22:20:57.121Z,112.43
2019-03-30T22:23:30.282Z,109.23
2019-03-30T22:26:05.912Z,109.87
2019-03-30T22:28:43.905Z,106.97
2019-03-30T22:31:15.952Z,112.23
2019-03-30T22:33:48.173Z,110.60
2019-03-30T22:36:20.452Z,110.40
2019-03-30T22:38:52.422Z,109.63
2019-03-30T22:41:24.382Z,107.33
2019-03-30T22:43:56.152Z,113.70
2019-03-30T22:46:29.027Z,107.13
2019-03-30T22:49:00.762Z,114.63
2019-03-30T22:51:33.052Z,116.50
2019-03-30T22:54:04.792Z,114.73
2019-03-30T22:56:36.662Z,114.37
2019-03-30T22:59:08.513Z,109.87
2019-03-30T23:01:44.283Z,110.47
2019-03-30T23:04:25.142Z,110.33
2019-03-30T23:06:57.722Z,112.10
2019-03-30T23:09:29.572Z,110.50
2019-03-30T23:12:01.638Z,108.97
2019-03-30T23:14:33.503Z,108.67
2019-03-30T23:17:09.352Z,105.67
2019-03-30T23:19:41.422Z,106.70
2019-03-30T23:22:13.392Z,111.23
2019-03-30T23:24:45.244Z,107.33
2019-03-30T23:27:18.332Z,110.30
2019-03-30T23:29:50.300Z,99.23
2019-03-30T23:32:22.683Z,106.97
2019-03-30T23:34:54.733Z,112.03
2019-03-30T23:37:27.213Z,104.80
2019-03-30T23:39:59.062Z,102.70
2019-03-30T23:42:31.142Z,103.47
2019-03-30T23:45:03.825Z,102.70
2019-03-30T23:47:36.084Z,103.73
2019-03-30T23:50:08.254Z,101.93
2019-03-30T23:52:40.322Z,101.77
2019-03-30T23:55:12.382Z,100.67
2019-03-30T23:57:44.446Z,96.93
